sensor_id;sensor_type;location;lat;lon;timestamp;P1;durP1;ratioP1;P2;durP2;ratioP2
48516;SDS011;34310;51.904;4.256;2023-03-17T00:01:45;12.82;;;9.75;;
48516;SDS011;34310;51.904;4.256;2023-03-17T00:04:19;13.07;;;9.88;;
48516;SDS011;34310;51.904;4.256;2023-03-17T00:06:49;12.05;;;9.60;;
48516;SDS011;34310;51.904;4.256;2023-03-17T00:09:17;11.27;;;8.98;;
48516;SDS011;34310;51.904;4.256;2023-03-17T00:11:45;11.85;;;9.18;;
48516;SDS011;34310;51.904;4.256;2023-03-17T00:14:13;11.45;;;8.77;;
48516;SDS011;34310;51.904;4.256;2023-03-17T00:16:42;11.55;;;9.13;;
48516;SDS011;34310;51.904;4.256;2023-03-17T00:19:15;12.63;;;9.15;;
48516;SDS011;34310;51.904;4.256;2023-03-17T00:21:45;11.32;;;8.80;;
48516;SDS011;34310;51.904;4.256;2023-03-17T00:24:13;12.20;;;9.00;;
48516;SDS011;34310;51.904;4.256;2023-03-17T00:26:41;11.20;;;8.65;;
48516;SDS011;34310;51.904;4.256;2023-03-17T00:29:09;10.27;;;8.30;;
48516;SDS011;34310;51.904;4.256;2023-03-17T00:31:36;10.35;;;8.15;;
48516;SDS011;34310;51.904;4.256;2023-03-17T00:34:04;10.25;;;8.00;;
48516;SDS011;34310;51.904;4.256;2023-03-17T00:36:36;10.57;;;8.07;;
48516;SDS011;34310;51.904;4.256;2023-03-17T00:39:05;9.60;;;7.72;;
48516;SDS011;34310;51.904;4.256;2023-03-17T00:41:37;10.20;;;8.13;;
48516;SDS011;34310;51.904;4.256;2023-03-17T00:44:05;9.60;;;7.82;;
48516;SDS011;34310;51.904;4.256;2023-03-17T00:46:32;10.27;;;7.95;;
48516;SDS011;34310;51.904;4.256;2023-03-17T00:49:12;8.95;;;7.40;;
48516;SDS011;34310;51.904;4.256;2023-03-17T00:51:41;9.02;;;7.10;;
48516;SDS011;34310;51.904;4.256;2023-03-17T00:54:10;8.50;;;6.97;;
48516;SDS011;34310;51.904;4.256;2023-03-17T00:56:39;8.48;;;6.82;;
48516;SDS011;34310;51.904;4.256;2023-03-17T00:59:29;8.57;;;6.90;;
48516;SDS011;34310;51.904;4.256;2023-03-17T01:02:00;8.57;;;7.03;;
48516;SDS011;34310;51.904;4.256;2023-03-17T01:04:28;8.98;;;7.13;;
48516;SDS011;34310;51.904;4.256;2023-03-17T01:06:55;7.72;;;6.13;;
48516;SDS011;34310;51.904;4.256;2023-03-17T01:09:25;8.77;;;6.72;;
48516;SDS011;34310;51.904;4.256;2023-03-17T01:11:53;7.38;;;6.05;;
48516;SDS011;34310;51.904;4.256;2023-03-17T01:14:21;8.10;;;6.72;;
48516;SDS011;34310;51.904;4.256;2023-03-17T01:16:51;6.85;;;5.80;;
48516;SDS011;34310;51.904;4.256;2023-03-17T01:19:20;7.90;;;5.97;;
48516;SDS011;34310;51.904;4.256;2023-03-17T01:21:48;7.40;;;5.95;;
48516;SDS011;34310;51.904;4.256;2023-03-17T01:24:15;8.23;;;6.15;;
48516;SDS011;34310;51.904;4.256;2023-03-17T01:26:42;7.88;;;5.82;;
48516;SDS011;34310;51.904;4.256;2023-03-17T01:29:10;6.32;;;5.55;;
48516;SDS011;34310;51.904;4.256;2023-03-17T01:31:37;6.45;;;5.50;;
48516;SDS011;34310;51.904;4.256;2023-03-17T01:34:05;6.35;;;5.60;;
48516;SDS011;34310;51.904;4.256;2023-03-17T01:36:32;7.28;;;5.55;;
48516;SDS011;34310;51.904;4.256;2023-03-17T01:39:00;6.28;;;5.07;;
48516;SDS011;34310;51.904;4.256;2023-03-17T01:41:34;6.55;;;5.18;;
48516;SDS011;34310;51.904;4.256;2023-03-17T01:44:02;6.28;;;5.03;;
48516;SDS011;34310;51.904;4.256;2023-03-17T01:46:31;6.22;;;5.15;;
48516;SDS011;34310;51.904;4.256;2023-03-17T01:57:24;5.78;;;4.78;;
48516;SDS011;34310;51.904;4.256;2023-03-17T02:00:00;5.90;;;4.55;;
48516;SDS011;34310;51.904;4.256;2023-03-17T02:02:35;6.20;;;4.60;;
48516;SDS011;34310;51.904;4.256;2023-03-17T02:05:05;5.75;;;4.68;;
48516;SDS011;34310;51.904;4.256;2023-03-17T02:07:35;5.75;;;4.70;;
48516;SDS011;34310;51.904;4.256;2023-03-17T02:10:03;5.13;;;4.25;;
48516;SDS011;34310;51.904;4.256;2023-03-17T02:12:31;5.60;;;4.13;;
48516;SDS011;34310;51.904;4.256;2023-03-17T02:15:02;4.65;;;4.20;;
48516;SDS011;34310;51.904;4.256;2023-03-17T02:17:31;4.63;;;4.00;;
48516;SDS011;34310;51.904;4.256;2023-03-17T02:20:11;6.15;;;3.97;;
48516;SDS011;34310;51.904;4.256;2023-03-17T02:22:42;4.88;;;4.18;;
48516;SDS011;34310;51.904;4.256;2023-03-17T02:25:10;5.18;;;4.03;;
48516;SDS011;34310;51.904;4.256;2023-03-17T02:27:43;4.72;;;3.60;;
48516;SDS011;34310;51.904;4.256;2023-03-17T02:30:16;4.07;;;3.50;;
48516;SDS011;34310;51.904;4.256;2023-03-17T02:32:45;3.92;;;3.53;;
48516;SDS011;34310;51.904;4.256;2023-03-17T02:35:13;4.47;;;3.72;;
48516;SDS011;34310;51.904;4.256;2023-03-17T02:37:40;4.47;;;3.67;;
48516;SDS011;34310;51.904;4.256;2023-03-17T02:40:09;3.95;;;3.40;;
48516;SDS011;34310;51.904;4.256;2023-03-17T02:42:38;4.30;;;3.50;;
48516;SDS011;34310;51.904;4.256;2023-03-17T02:45:07;4.35;;;3.70;;
48516;SDS011;34310;51.904;4.256;2023-03-17T02:47:37;4.70;;;3.55;;
48516;SDS011;34310;51.904;4.256;2023-03-17T02:50:05;3.67;;;3.25;;
48516;SDS011;34310;51.904;4.256;2023-03-17T02:52:34;4.38;;;3.58;;
48516;SDS011;34310;51.904;4.256;2023-03-17T02:55:02;4.07;;;3.20;;
48516;SDS011;34310;51.904;4.256;2023-03-17T02:57:30;4.70;;;3.47;;
48516;SDS011;34310;51.904;4.256;2023-03-17T02:59:57;3.97;;;3.50;;
48516;SDS011;34310;51.904;4.256;2023-03-17T03:02:25;4.10;;;3.20;;
48516;SDS011;34310;51.904;4.256;2023-03-17T03:04:52;3.65;;;3.13;;
48516;SDS011;34310;51.904;4.256;2023-03-17T03:07:19;4.03;;;3.03;;
48516;SDS011;34310;51.904;4.256;2023-03-17T03:09:47;3.42;;;3.13;;
48516;SDS011;34310;51.904;4.256;2023-03-17T03:12:15;3.63;;;3.05;;
48516;SDS011;34310;51.904;4.256;2023-03-17T03:14:42;4.72;;;2.90;;
48516;SDS011;34310;51.904;4.256;2023-03-17T03:17:10;3.55;;;3.03;;
48516;SDS011;34310;51.904;4.256;2023-03-17T03:19:37;3.97;;;3.13;;
48516;SDS011;34310;51.904;4.256;2023-03-17T03:22:05;3.25;;;2.78;;
48516;SDS011;34310;51.904;4.256;2023-03-17T03:24:32;3.33;;;2.83;;
48516;SDS011;34310;51.904;4.256;2023-03-17T03:27:00;3.15;;;2.85;;
48516;SDS011;34310;51.904;4.256;2023-03-17T03:29:27;4.20;;;2.80;;
48516;SDS011;34310;51.904;4.256;2023-03-17T03:31:54;3.17;;;2.88;;
48516;SDS011;34310;51.904;4.256;2023-03-17T03:34:22;3.28;;;2.92;;
48516;SDS011;34310;51.904;4.256;2023-03-17T03:36:49;3.67;;;2.80;;
48516;SDS011;34310;51.904;4.256;2023-03-17T03:39:16;3.40;;;2.53;;
48516;SDS011;34310;51.904;4.256;2023-03-17T03:41:43;2.97;;;2.42;;
48516;SDS011;34310;51.904;4.256;2023-03-17T03:44:11;2.55;;;2.35;;
48516;SDS011;34310;51.904;4.256;2023-03-17T03:46:38;3.35;;;2.50;;
48516;SDS011;34310;51.904;4.256;2023-03-17T03:49:06;3.03;;;2.70;;
48516;SDS011;34310;51.904;4.256;2023-03-17T03:51:33;3.20;;;2.53;;
48516;SDS011;34310;51.904;4.256;2023-03-17T03:54:00;3.00;;;2.55;;
48516;SDS011;34310;51.904;4.256;2023-03-17T03:56:28;3.33;;;2.25;;
48516;SDS011;34310;51.904;4.256;2023-03-17T03:58:55;2.80;;;2.17;;
48516;SDS011;34310;51.904;4.256;2023-03-17T04:01:23;2.97;;;2.53;;
48516;SDS011;34310;51.904;4.256;2023-03-17T04:03:50;2.50;;;2.10;;
48516;SDS011;34310;51.904;4.256;2023-03-17T04:06:17;2.58;;;2.20;;
48516;SDS011;34310;51.904;4.256;2023-03-17T04:08:45;2.35;;;2.15;;
48516;SDS011;34310;51.904;4.256;2023-03-17T04:11:12;3.45;;;2.40;;
48516;SDS011;34310;51.904;4.256;2023-03-17T04:13:40;2.22;;;2.03;;
48516;SDS011;34310;51.904;4.256;2023-03-17T04:16:07;3.30;;;2.15;;
48516;SDS011;34310;51.904;4.256;2023-03-17T04:18:35;2.40;;;2.20;;
48516;SDS011;34310;51.904;4.256;2023-03-17T04:21:02;2.85;;;1.83;;
48516;SDS011;34310;51.904;4.256;2023-03-17T04:23:30;2.33;;;2.13;;
48516;SDS011;34310;51.904;4.256;2023-03-17T04:25:57;2.33;;;2.00;;
48516;SDS011;34310;51.904;4.256;2023-03-17T04:28:25;2.30;;;2.00;;
48516;SDS011;34310;51.904;4.256;2023-03-17T04:30:52;2.60;;;2.10;;
48516;SDS011;34310;51.904;4.256;2023-03-17T04:33:19;2.33;;;1.85;;
48516;SDS011;34310;51.904;4.256;2023-03-17T04:35:47;3.17;;;2.22;;
48516;SDS011;34310;51.904;4.256;2023-03-17T04:38:14;2.22;;;2.00;;
48516;SDS011;34310;51.904;4.256;2023-03-17T04:40:42;2.97;;;2.00;;
48516;SDS011;34310;51.904;4.256;2023-03-17T04:43:09;2.35;;;2.10;;
48516;SDS011;34310;51.904;4.256;2023-03-17T04:45:36;2.83;;;1.92;;
48516;SDS011;34310;51.904;4.256;2023-03-17T04:48:04;2.58;;;1.80;;
48516;SDS011;34310;51.904;4.256;2023-03-17T04:50:31;3.45;;;2.20;;
48516;SDS011;34310;51.904;4.256;2023-03-17T04:52:59;2.00;;;1.80;;
48516;SDS011;34310;51.904;4.256;2023-03-17T04:55:27;2.40;;;2.05;;
48516;SDS011;34310;51.904;4.256;2023-03-17T04:57:54;2.63;;;2.20;;
48516;SDS011;34310;51.904;4.256;2023-03-17T05:00:21;2.85;;;2.10;;
48516;SDS011;34310;51.904;4.256;2023-03-17T05:02:49;1.90;;;1.75;;
48516;SDS011;34310;51.904;4.256;2023-03-17T05:05:16;2.92;;;1.98;;
48516;SDS011;34310;51.904;4.256;2023-03-17T05:07:43;2.63;;;2.00;;
48516;SDS011;34310;51.904;4.256;2023-03-17T05:10:11;1.85;;;1.65;;
48516;SDS011;34310;51.904;4.256;2023-03-17T05:12:38;2.20;;;2.00;;
48516;SDS011;34310;51.904;4.256;2023-03-17T05:15:06;2.60;;;1.90;;
48516;SDS011;34310;51.904;4.256;2023-03-17T05:17:35;2.35;;;1.80;;
48516;SDS011;34310;51.904;4.256;2023-03-17T05:20:02;3.95;;;2.00;;
48516;SDS011;34310;51.904;4.256;2023-03-17T05:22:30;6.00;;;2.55;;
48516;SDS011;34310;51.904;4.256;2023-03-17T05:24:57;5.15;;;2.33;;
48516;SDS011;34310;51.904;4.256;2023-03-17T05:27:25;6.88;;;2.35;;
48516;SDS011;34310;51.904;4.256;2023-03-17T05:29:52;4.72;;;2.20;;
48516;SDS011;34310;51.904;4.256;2023-03-17T05:32:19;3.85;;;1.95;;
48516;SDS011;34310;51.904;4.256;2023-03-17T05:34:47;3.92;;;2.00;;
48516;SDS011;34310;51.904;4.256;2023-03-17T05:37:15;7.35;;;2.17;;
48516;SDS011;34310;51.904;4.256;2023-03-17T05:39:42;5.10;;;2.42;;
48516;SDS011;34310;51.904;4.256;2023-03-17T05:42:10;4.35;;;2.38;;
48516;SDS011;34310;51.904;4.256;2023-03-17T05:44:37;4.60;;;2.33;;
48516;SDS011;34310;51.904;4.256;2023-03-17T05:47:05;4.78;;;2.22;;
48516;SDS011;34310;51.904;4.256;2023-03-17T05:49:33;6.18;;;2.47;;
48516;SDS011;34310;51.904;4.256;2023-03-17T05:52:01;2.88;;;2.10;;
48516;SDS011;34310;51.904;4.256;2023-03-17T05:54:28;4.78;;;2.33;;
48516;SDS011;34310;51.904;4.256;2023-03-17T05:56:55;3.55;;;2.30;;
48516;SDS011;34310;51.904;4.256;2023-03-17T05:59:23;3.35;;;2.30;;
48516;SDS011;34310;51.904;4.256;2023-03-17T06:01:50;4.35;;;2.30;;
48516;SDS011;34310;51.904;4.256;2023-03-17T06:04:18;4.25;;;2.38;;
48516;SDS011;34310;51.904;4.256;2023-03-17T06:06:45;7.68;;;2.10;;
48516;SDS011;34310;51.904;4.256;2023-03-17T06:09:12;3.28;;;2.15;;
48516;SDS011;34310;51.904;4.256;2023-03-17T06:11:40;3.83;;;2.42;;
48516;SDS011;34310;51.904;4.256;2023-03-17T06:14:09;3.45;;;2.40;;
48516;SDS011;34310;51.904;4.256;2023-03-17T06:16:36;3.10;;;2.45;;
48516;SDS011;34310;51.904;4.256;2023-03-17T06:19:03;5.25;;;2.42;;
48516;SDS011;34310;51.904;4.256;2023-03-17T06:21:31;4.25;;;2.42;;
48516;SDS011;34310;51.904;4.256;2023-03-17T06:23:58;3.92;;;2.22;;
48516;SDS011;34310;51.904;4.256;2023-03-17T06:26:26;3.95;;;2.05;;
48516;SDS011;34310;51.904;4.256;2023-03-17T06:28:53;3.38;;;2.22;;
48516;SDS011;34310;51.904;4.256;2023-03-17T06:31:20;4.00;;;2.15;;
48516;SDS011;34310;51.904;4.256;2023-03-17T06:33:49;3.08;;;2.40;;
48516;SDS011;34310;51.904;4.256;2023-03-17T06:36:16;3.08;;;2.42;;
48516;SDS011;34310;51.904;4.256;2023-03-17T06:38:43;3.05;;;2.20;;
48516;SDS011;34310;51.904;4.256;2023-03-17T06:41:11;3.53;;;2.22;;
48516;SDS011;34310;51.904;4.256;2023-03-17T06:43:38;4.20;;;2.50;;
48516;SDS011;34310;51.904;4.256;2023-03-17T06:46:06;2.85;;;2.38;;
48516;SDS011;34310;51.904;4.256;2023-03-17T06:48:33;2.90;;;2.50;;
48516;SDS011;34310;51.904;4.256;2023-03-17T06:51:01;2.85;;;2.30;;
48516;SDS011;34310;51.904;4.256;2023-03-17T06:53:28;2.97;;;2.30;;
48516;SDS011;34310;51.904;4.256;2023-03-17T06:55:56;2.92;;;2.22;;
48516;SDS011;34310;51.904;4.256;2023-03-17T06:58:23;2.70;;;2.13;;
48516;SDS011;34310;51.904;4.256;2023-03-17T07:00:51;3.03;;;2.55;;
48516;SDS011;34310;51.904;4.256;2023-03-17T07:03:19;3.10;;;2.40;;
48516;SDS011;34310;51.904;4.256;2023-03-17T07:05:49;3.65;;;2.50;;
48516;SDS011;34310;51.904;4.256;2023-03-17T07:08:16;2.95;;;2.15;;
48516;SDS011;34310;51.904;4.256;2023-03-17T07:10:44;3.65;;;2.50;;
48516;SDS011;34310;51.904;4.256;2023-03-17T07:13:11;3.17;;;2.40;;
48516;SDS011;34310;51.904;4.256;2023-03-17T07:15:39;2.42;;;2.17;;
48516;SDS011;34310;51.904;4.256;2023-03-17T07:18:07;3.75;;;2.28;;
48516;SDS011;34310;51.904;4.256;2023-03-17T07:20:34;3.45;;;2.60;;
48516;SDS011;34310;51.904;4.256;2023-03-17T07:23:02;2.88;;;2.25;;
48516;SDS011;34310;51.904;4.256;2023-03-17T07:25:29;4.88;;;2.70;;
48516;SDS011;34310;51.904;4.256;2023-03-17T07:27:57;4.13;;;2.47;;
48516;SDS011;34310;51.904;4.256;2023-03-17T07:30:24;3.70;;;2.58;;
48516;SDS011;34310;51.904;4.256;2023-03-17T07:32:52;3.55;;;2.65;;
48516;SDS011;34310;51.904;4.256;2023-03-17T07:35:20;3.22;;;2.33;;
48516;SDS011;34310;51.904;4.256;2023-03-17T07:37:48;3.25;;;2.55;;
48516;SDS011;34310;51.904;4.256;2023-03-17T07:40:15;2.78;;;2.38;;
48516;SDS011;34310;51.904;4.256;2023-03-17T07:42:43;2.92;;;2.38;;
48516;SDS011;34310;51.904;4.256;2023-03-17T07:45:11;3.30;;;2.50;;
48516;SDS011;34310;51.904;4.256;2023-03-17T07:47:38;3.58;;;2.60;;
48516;SDS011;34310;51.904;4.256;2023-03-17T07:50:06;3.63;;;2.83;;
48516;SDS011;34310;51.904;4.256;2023-03-17T07:52:34;4.25;;;2.78;;
48516;SDS011;34310;51.904;4.256;2023-03-17T07:55:02;2.88;;;2.58;;
48516;SDS011;34310;51.904;4.256;2023-03-17T07:57:33;3.28;;;2.35;;
48516;SDS011;34310;51.904;4.256;2023-03-17T08:00:01;3.03;;;2.47;;
48516;SDS011;34310;51.904;4.256;2023-03-17T08:02:29;3.72;;;2.35;;
48516;SDS011;34310;51.904;4.256;2023-03-17T08:04:57;2.65;;;2.17;;
48516;SDS011;34310;51.904;4.256;2023-03-17T08:07:24;3.13;;;2.40;;
48516;SDS011;34310;51.904;4.256;2023-03-17T08:09:51;3.78;;;2.80;;
48516;SDS011;34310;51.904;4.256;2023-03-17T08:12:19;3.17;;;2.60;;
48516;SDS011;34310;51.904;4.256;2023-03-17T08:14:46;3.08;;;2.47;;
48516;SDS011;34310;51.904;4.256;2023-03-17T08:17:14;2.88;;;2.35;;
48516;SDS011;34310;51.904;4.256;2023-03-17T08:19:42;2.97;;;2.63;;
48516;SDS011;34310;51.904;4.256;2023-03-17T08:22:09;3.42;;;2.65;;
48516;SDS011;34310;51.904;4.256;2023-03-17T08:24:37;3.72;;;2.78;;
48516;SDS011;34310;51.904;4.256;2023-03-17T08:27:08;2.80;;;2.50;;
48516;SDS011;34310;51.904;4.256;2023-03-17T08:29:35;3.00;;;2.55;;
48516;SDS011;34310;51.904;4.256;2023-03-17T08:32:02;3.78;;;2.95;;
48516;SDS011;34310;51.904;4.256;2023-03-17T08:34:30;2.90;;;2.50;;
48516;SDS011;34310;51.904;4.256;2023-03-17T08:36:58;4.18;;;2.92;;
48516;SDS011;34310;51.904;4.256;2023-03-17T08:39:27;3.53;;;2.42;;
48516;SDS011;34310;51.904;4.256;2023-03-17T08:41:54;3.13;;;2.60;;
48516;SDS011;34310;51.904;4.256;2023-03-17T08:44:22;2.92;;;2.60;;
48516;SDS011;34310;51.904;4.256;2023-03-17T08:46:50;3.65;;;2.70;;
48516;SDS011;34310;51.904;4.256;2023-03-17T08:49:17;3.30;;;2.72;;
48516;SDS011;34310;51.904;4.256;2023-03-17T08:51:44;3.00;;;2.70;;
48516;SDS011;34310;51.904;4.256;2023-03-17T08:54:12;3.15;;;2.60;;
48516;SDS011;34310;51.904;4.256;2023-03-17T08:56:40;3.30;;;2.65;;
48516;SDS011;34310;51.904;4.256;2023-03-17T08:59:08;3.28;;;2.60;;
48516;SDS011;34310;51.904;4.256;2023-03-17T09:01:36;3.25;;;2.90;;
48516;SDS011;34310;51.904;4.256;2023-03-17T09:04:03;3.33;;;2.63;;
48516;SDS011;34310;51.904;4.256;2023-03-17T09:06:31;2.63;;;2.30;;
48516;SDS011;34310;51.904;4.256;2023-03-17T09:08:58;3.22;;;2.60;;
48516;SDS011;34310;51.904;4.256;2023-03-17T09:11:27;3.38;;;2.63;;
48516;SDS011;34310;51.904;4.256;2023-03-17T09:13:56;2.60;;;2.40;;
48516;SDS011;34310;51.904;4.256;2023-03-17T09:16:24;3.13;;;2.60;;
48516;SDS011;34310;51.904;4.256;2023-03-17T09:18:53;3.60;;;2.38;;
48516;SDS011;34310;51.904;4.256;2023-03-17T09:21:20;3.47;;;2.80;;
48516;SDS011;34310;51.904;4.256;2023-03-17T09:23:48;3.50;;;3.00;;
48516;SDS011;34310;51.904;4.256;2023-03-17T09:26:16;3.40;;;2.78;;
48516;SDS011;34310;51.904;4.256;2023-03-17T09:28:45;4.00;;;3.20;;
48516;SDS011;34310;51.904;4.256;2023-03-17T09:31:12;3.65;;;2.80;;
48516;SDS011;34310;51.904;4.256;2023-03-17T09:33:40;3.17;;;2.72;;
48516;SDS011;34310;51.904;4.256;2023-03-17T09:36:10;2.90;;;2.50;;
48516;SDS011;34310;51.904;4.256;2023-03-17T09:38:38;3.78;;;2.78;;
48516;SDS011;34310;51.904;4.256;2023-03-17T09:44:26;3.33;;;2.95;;
48516;SDS011;34310;51.904;4.256;2023-03-17T09:47:10;3.65;;;2.70;;
48516;SDS011;34310;51.904;4.256;2023-03-17T09:50:03;3.00;;;2.65;;
48516;SDS011;34310;51.904;4.256;2023-03-17T09:52:41;3.20;;;2.47;;
48516;SDS011;34310;51.904;4.256;2023-03-17T09:55:21;3.30;;;2.35;;
48516;SDS011;34310;51.904;4.256;2023-03-17T09:57:55;4.80;;;2.80;;
48516;SDS011;34310;51.904;4.256;2023-03-17T10:00:26;2.60;;;2.40;;
48516;SDS011;34310;51.904;4.256;2023-03-17T10:02:55;3.38;;;2.75;;
48516;SDS011;34310;51.904;4.256;2023-03-17T10:05:24;3.15;;;2.45;;
48516;SDS011;34310;51.904;4.256;2023-03-17T10:19:08;2.92;;;2.40;;
48516;SDS011;34310;51.904;4.256;2023-03-17T10:21:54;3.33;;;2.70;;
48516;SDS011;34310;51.904;4.256;2023-03-17T10:24:28;2.72;;;2.47;;
48516;SDS011;34310;51.904;4.256;2023-03-17T10:27:00;3.80;;;2.97;;
48516;SDS011;34310;51.904;4.256;2023-03-17T10:29:31;3.25;;;2.70;;
48516;SDS011;34310;51.904;4.256;2023-03-17T10:31:59;2.88;;;2.58;;
48516;SDS011;34310;51.904;4.256;2023-03-17T10:34:31;3.10;;;2.63;;
48516;SDS011;34310;51.904;4.256;2023-03-17T10:37:13;2.63;;;2.30;;
48516;SDS011;34310;51.904;4.256;2023-03-17T10:39:47;4.82;;;3.13;;
48516;SDS011;34310;51.904;4.256;2023-03-17T10:42:24;4.47;;;2.75;;
48516;SDS011;34310;51.904;4.256;2023-03-17T10:44:56;4.78;;;2.85;;
48516;SDS011;34310;51.904;4.256;2023-03-17T10:47:39;3.70;;;2.60;;
48516;SDS011;34310;51.904;4.256;2023-03-17T10:52:41;4.05;;;2.92;;
48516;SDS011;34310;51.904;4.256;2023-03-17T10:55:16;4.38;;;2.88;;
48516;SDS011;34310;51.904;4.256;2023-03-17T10:57:48;3.30;;;2.50;;
48516;SDS011;34310;51.904;4.256;2023-03-17T11:00:18;3.38;;;2.95;;
48516;SDS011;34310;51.904;4.256;2023-03-17T11:02:55;3.05;;;2.60;;
48516;SDS011;34310;51.904;4.256;2023-03-17T11:05:25;3.25;;;2.45;;
48516;SDS011;34310;51.904;4.256;2023-03-17T11:08:05;3.08;;;2.70;;
48516;SDS011;34310;51.904;4.256;2023-03-17T11:10:34;3.55;;;2.67;;
48516;SDS011;34310;51.904;4.256;2023-03-17T11:13:04;3.88;;;3.00;;
48516;SDS011;34310;51.904;4.256;2023-03-17T11:15:32;3.88;;;3.03;;
48516;SDS011;34310;51.904;4.256;2023-03-17T11:20:47;3.38;;;2.75;;
48516;SDS011;34310;51.904;4.256;2023-03-17T11:23:25;3.65;;;2.90;;
48516;SDS011;34310;51.904;4.256;2023-03-17T11:26:21;2.90;;;2.60;;
48516;SDS011;34310;51.904;4.256;2023-03-17T11:28:46;3.67;;;3.10;;
48516;SDS011;34310;51.904;4.256;2023-03-17T11:31:29;3.05;;;2.50;;
48516;SDS011;34310;51.904;4.256;2023-03-17T11:34:09;2.95;;;2.55;;
48516;SDS011;34310;51.904;4.256;2023-03-17T11:37:00;4.78;;;2.97;;
48516;SDS011;34310;51.904;4.256;2023-03-17T11:39:40;3.55;;;2.85;;
48516;SDS011;34310;51.904;4.256;2023-03-17T11:42:35;3.85;;;3.20;;
48516;SDS011;34310;51.904;4.256;2023-03-17T11:56:39;3.60;;;3.03;;
48516;SDS011;34310;51.904;4.256;2023-03-17T11:59:34;3.25;;;2.88;;
48516;SDS011;34310;51.904;4.256;2023-03-17T12:07:22;3.90;;;3.10;;
48516;SDS011;34310;51.904;4.256;2023-03-17T12:12:49;3.30;;;3.00;;
48516;SDS011;34310;51.904;4.256;2023-03-17T12:15:27;3.45;;;3.00;;
48516;SDS011;34310;51.904;4.256;2023-03-17T12:18:15;3.43;;;2.67;;
48516;SDS011;34310;51.904;4.256;2023-03-17T12:20:52;3.92;;;2.70;;
48516;SDS011;34310;51.904;4.256;2023-03-17T12:23:35;2.78;;;2.50;;
48516;SDS011;34310;51.904;4.256;2023-03-17T12:26:18;4.25;;;2.70;;
48516;SDS011;34310;51.904;4.256;2023-03-17T12:29:12;2.97;;;2.53;;
48516;SDS011;34310;51.904;4.256;2023-03-17T12:31:45;3.42;;;2.65;;
48516;SDS011;34310;51.904;4.256;2023-03-17T12:34:25;3.35;;;2.83;;
48516;SDS011;34310;51.904;4.256;2023-03-17T12:36:58;4.25;;;2.88;;
48516;SDS011;34310;51.904;4.256;2023-03-17T12:39:34;5.15;;;3.10;;
48516;SDS011;34310;51.904;4.256;2023-03-17T12:55:34;3.08;;;2.53;;
48516;SDS011;34310;51.904;4.256;2023-03-17T12:58:14;2.88;;;2.55;;
48516;SDS011;34310;51.904;4.256;2023-03-17T13:00:48;3.30;;;2.70;;
48516;SDS011;34310;51.904;4.256;2023-03-17T13:03:32;2.83;;;2.53;;
48516;SDS011;34310;51.904;4.256;2023-03-17T13:06:03;3.20;;;2.67;;
48516;SDS011;34310;51.904;4.256;2023-03-17T13:08:35;4.30;;;2.97;;
48516;SDS011;34310;51.904;4.256;2023-03-17T13:11:16;3.40;;;2.67;;
48516;SDS011;34310;51.904;4.256;2023-03-17T13:16:36;3.20;;;2.88;;
48516;SDS011;34310;51.904;4.256;2023-03-17T13:19:13;2.85;;;2.45;;
48516;SDS011;34310;51.904;4.256;2023-03-17T13:24:42;3.03;;;2.60;;
48516;SDS011;34310;51.904;4.256;2023-03-17T13:29:58;2.95;;;2.40;;
48516;SDS011;34310;51.904;4.256;2023-03-17T13:33:00;3.70;;;2.60;;
48516;SDS011;34310;51.904;4.256;2023-03-17T13:35:45;3.80;;;2.50;;
48516;SDS011;34310;51.904;4.256;2023-03-17T13:50:22;3.42;;;2.60;;
48516;SDS011;34310;51.904;4.256;2023-03-17T13:52:56;2.50;;;2.30;;
48516;SDS011;34310;51.904;4.256;2023-03-17T13:55:31;3.33;;;2.60;;
48516;SDS011;34310;51.904;4.256;2023-03-17T14:00:37;3.25;;;2.35;;
48516;SDS011;34310;51.904;4.256;2023-03-17T14:03:10;2.85;;;2.50;;
48516;SDS011;34310;51.904;4.256;2023-03-17T14:05:54;3.10;;;2.65;;
48516;SDS011;34310;51.904;4.256;2023-03-17T14:08:28;2.55;;;2.35;;
48516;SDS011;34310;51.904;4.256;2023-03-17T14:11:01;3.30;;;2.50;;
48516;SDS011;34310;51.904;4.256;2023-03-17T14:13:43;2.38;;;2.17;;
48516;SDS011;34310;51.904;4.256;2023-03-17T14:16:31;2.75;;;2.45;;
48516;SDS011;34310;51.904;4.256;2023-03-17T14:19:24;3.47;;;2.60;;
48516;SDS011;34310;51.904;4.256;2023-03-17T14:21:54;4.15;;;2.50;;
48516;SDS011;34310;51.904;4.256;2023-03-17T14:24:30;2.50;;;2.30;;
48516;SDS011;34310;51.904;4.256;2023-03-17T14:27:05;2.72;;;2.42;;
48516;SDS011;34310;51.904;4.256;2023-03-17T14:29:34;2.83;;;2.35;;
48516;SDS011;34310;51.904;4.256;2023-03-17T14:32:04;3.97;;;2.60;;
48516;SDS011;34310;51.904;4.256;2023-03-17T14:34:43;3.78;;;2.75;;
48516;SDS011;34310;51.904;4.256;2023-03-17T14:37:18;3.63;;;2.90;;
48516;SDS011;34310;51.904;4.256;2023-03-17T14:39:47;3.25;;;2.70;;
48516;SDS011;34310;51.904;4.256;2023-03-17T14:42:23;2.85;;;2.40;;
48516;SDS011;34310;51.904;4.256;2023-03-17T14:47:35;3.47;;;2.47;;
48516;SDS011;34310;51.904;4.256;2023-03-17T14:50:27;2.67;;;2.45;;
48516;SDS011;34310;51.904;4.256;2023-03-17T14:53:00;2.90;;;2.53;;
48516;SDS011;34310;51.904;4.256;2023-03-17T14:55:29;2.90;;;2.33;;
48516;SDS011;34310;51.904;4.256;2023-03-17T14:58:07;3.72;;;2.20;;
48516;SDS011;34310;51.904;4.256;2023-03-17T15:00:42;2.53;;;2.33;;
48516;SDS011;34310;51.904;4.256;2023-03-17T15:03:18;3.58;;;2.67;;
48516;SDS011;34310;51.904;4.256;2023-03-17T15:05:49;3.67;;;2.70;;
48516;SDS011;34310;51.904;4.256;2023-03-17T15:11:13;3.75;;;3.00;;
48516;SDS011;34310;51.904;4.256;2023-03-17T15:13:42;4.22;;;3.50;;
48516;SDS011;34310;51.904;4.256;2023-03-17T15:16:23;4.22;;;3.63;;
48516;SDS011;34310;51.904;4.256;2023-03-17T15:19:13;5.80;;;3.92;;
48516;SDS011;34310;51.904;4.256;2023-03-17T15:21:46;4.32;;;3.92;;
48516;SDS011;34310;51.904;4.256;2023-03-17T15:24:23;7.18;;;4.70;;
48516;SDS011;34310;51.904;4.256;2023-03-17T15:27:14;5.22;;;4.55;;
48516;SDS011;34310;51.904;4.256;2023-03-17T15:29:46;5.57;;;4.80;;
48516;SDS011;34310;51.904;4.256;2023-03-17T15:32:15;6.13;;;4.65;;
48516;SDS011;34310;51.904;4.256;2023-03-17T15:34:48;5.45;;;4.28;;
48516;SDS011;34310;51.904;4.256;2023-03-17T15:37:18;5.75;;;4.60;;
48516;SDS011;34310;51.904;4.256;2023-03-17T15:39:50;6.70;;;5.07;;
48516;SDS011;34310;51.904;4.256;2023-03-17T15:42:19;5.97;;;5.00;;
48516;SDS011;34310;51.904;4.256;2023-03-17T15:44:50;4.95;;;4.40;;
48516;SDS011;34310;51.904;4.256;2023-03-17T15:47:19;6.55;;;5.43;;
48516;SDS011;34310;51.904;4.256;2023-03-17T15:49:48;6.45;;;5.13;;
48516;SDS011;34310;51.904;4.256;2023-03-17T15:52:20;6.18;;;5.28;;
48516;SDS011;34310;51.904;4.256;2023-03-17T15:54:53;6.97;;;5.60;;
48516;SDS011;34310;51.904;4.256;2023-03-17T15:57:24;7.85;;;6.00;;
48516;SDS011;34310;51.904;4.256;2023-03-17T15:59:52;7.70;;;5.95;;
48516;SDS011;34310;51.904;4.256;2023-03-17T16:02:32;6.63;;;5.35;;
48516;SDS011;34310;51.904;4.256;2023-03-17T16:05:05;8.15;;;6.20;;
48516;SDS011;34310;51.904;4.256;2023-03-17T16:07:54;8.07;;;6.43;;
48516;SDS011;34310;51.904;4.256;2023-03-17T16:10:27;9.10;;;6.80;;
48516;SDS011;34310;51.904;4.256;2023-03-17T16:12:56;8.30;;;6.70;;
48516;SDS011;34310;51.904;4.256;2023-03-17T16:15:24;8.30;;;6.53;;
48516;SDS011;34310;51.904;4.256;2023-03-17T16:17:57;8.10;;;6.68;;
48516;SDS011;34310;51.904;4.256;2023-03-17T16:20:31;9.10;;;7.00;;
48516;SDS011;34310;51.904;4.256;2023-03-17T16:23:07;7.75;;;6.55;;
48516;SDS011;34310;51.904;4.256;2023-03-17T16:25:40;8.45;;;7.07;;
48516;SDS011;34310;51.904;4.256;2023-03-17T16:28:27;9.35;;;7.18;;
48516;SDS011;34310;51.904;4.256;2023-03-17T16:30:56;9.65;;;7.45;;
48516;SDS011;34310;51.904;4.256;2023-03-17T16:33:29;9.68;;;7.45;;
48516;SDS011;34310;51.904;4.256;2023-03-17T16:36:01;8.25;;;7.22;;
48516;SDS011;34310;51.904;4.256;2023-03-17T16:38:29;9.88;;;7.82;;
48516;SDS011;34310;51.904;4.256;2023-03-17T16:40:58;9.18;;;7.45;;